Terminal Aerodrome Forecast
Issued by NWS Wakefield, VA

Home | Current Version | Previous Version | Text Only | Print | Product List | Glossary On
Versions: 1 2 3 4 5 6 7 8 9 10 11 12 13
000
FTUS41 KAKQ 250500
TAFSBY
TAF
KSBY 250539Z 2506/2606 00000KT P6SM BKN250
     FM251400 15010KT P6SM BKN150
     FM251800 15013G21KT P6SM BKN050 OVC100
     FM252200 16012G19KT 5SM SHRA BKN030 OVC050
     FM260200 19010KT 5SM SHRA BKN015=

USA.gov is the U.S. government's official web portal to all federal, state and local government web resources and services.